Time;durP1;ratioP1;P1;durP2;ratioP2;P2;SDS_P1;SDS_P2;PMS_P1;PMS_P2;Temp;Humidity;BMP_temperature;BMP_pressure;BME280_temperature;BME280_humidity;BME280_pressure;Samples;Min_cycle;Max_cycle;Signal;HPM_P1;HPM_P2
2023/01/07 00:01:15;;;;;;;2.20;0.88;;;16.40;59.40;;;;;;5065162;28;20267;-72
2023/01/07 00:03:43;;;;;;;1.33;0.80;;;16.40;59.40;;;;;;5063737;28;20021;-71
2023/01/07 00:06:14;;;;;;;1.02;0.75;;;16.30;59.40;;;;;;5064954;28;20032;-71
2023/01/07 00:08:42;;;;;;;1.27;0.98;;;16.30;59.50;;;;;;5064835;28;20025;-71
2023/01/07 00:11:10;;;;;;;1.75;0.57;;;16.30;59.60;;;;;;5064853;28;20100;-72
2023/01/07 00:13:36;;;;;;;0.52;0.52;;;16.30;59.50;;;;;;5064866;28;20587;-70
2023/01/07 00:16:08;;;;;;;1.77;0.93;;;16.20;59.60;;;;;;5064830;28;20040;-70
2023/01/07 00:18:35;;;;;;;3.60;0.98;;;16.20;59.60;;;;;;5064870;28;20039;-71
2023/01/07 00:21:03;;;;;;;1.67;0.90;;;16.20;59.60;;;;;;5064717;28;20082;-70
2023/01/07 00:23:30;;;;;;;3.00;0.95;;;16.20;59.60;;;;;;5064716;28;20040;-72
2023/01/07 00:26:05;;;;;;;2.50;1.02;;;16.20;59.70;;;;;;5064620;28;20346;-71
2023/01/07 00:28:33;;;;;;;2.25;0.88;;;16.20;59.70;;;;;;5064391;28;20071;-72
2023/01/07 00:31:05;;;;;;;1.38;0.77;;;16.10;59.60;;;;;;5064646;28;20419;-72
2023/01/07 00:33:34;;;;;;;1.80;0.90;;;16.10;59.70;;;;;;5064461;28;20055;-71
2023/01/07 00:35:59;;;;;;;;;;;16.10;59.80;;;;;;5065000;28;20029;-71
2023/01/07 00:38:25;;;;;;;1.80;0.90;;;16.10;59.80;;;;;;5064506;28;19939;-72
2023/01/07 00:40:51;;;;;;;1.58;0.93;;;16.10;59.90;;;;;;5063108;28;20025;-71
2023/01/07 00:43:17;;;;;;;1.27;0.80;;;16.10;59.90;;;;;;5063035;28;20086;-71
2023/01/07 00:45:43;;;;;;;1.73;0.95;;;16.10;60.00;;;;;;5062925;28;20029;-71
2023/01/07 00:48:09;;;;;;;1.90;0.90;;;16.00;60.00;;;;;;5064172;28;20025;-71
2023/01/07 00:50:36;;;;;;;1.50;1.08;;;16.10;60.00;;;;;;5064094;28;20044;-72
2023/01/07 00:53:03;;;;;;;1.15;0.90;;;16.10;60.10;;;;;;5064063;28;20025;-71
2023/01/07 00:55:29;;;;;;;2.03;1.05;;;16.00;60.10;;;;;;5063864;28;20017;-71
2023/01/07 00:57:55;;;;;;;2.42;0.93;;;16.00;60.10;;;;;;5063973;28;20036;-71
2023/01/07 01:00:23;;;;;;;2.28;0.90;;;16.00;60.10;;;;;;5064023;28;20040;-71
2023/01/07 01:02:50;;;;;;;1.58;0.82;;;16.10;60.20;;;;;;5063901;28;20016;-71
2023/01/07 01:05:17;;;;;;;1.30;0.77;;;16.10;60.10;;;;;;5063865;28;20078;-72
2023/01/07 01:07:43;;;;;;;3.03;1.15;;;16.10;60.20;;;;;;5063768;28;20075;-72
2023/01/07 01:10:12;;;;;;;1.60;0.80;;;16.10;60.30;;;;;;5063713;28;20024;-71
2023/01/07 01:12:38;;;;;;;1.70;0.90;;;16.10;60.40;;;;;;5063699;28;20025;-72
2023/01/07 01:15:08;;;;;;;1.40;0.88;;;16.20;60.40;;;;;;5063727;28;20017;-71
2023/01/07 01:17:33;;;;;;;1.42;0.80;;;16.20;60.30;;;;;;5063694;28;20268;-71
2023/01/07 01:19:59;;;;;;;2.65;0.82;;;16.30;60.30;;;;;;5063510;28;20091;-71
2023/01/07 01:22:26;;;;;;;3.05;1.35;;;16.30;60.30;;;;;;5062335;28;20025;-70
2023/01/07 01:24:52;;;;;;;2.55;0.98;;;16.30;60.10;;;;;;5063442;28;20021;-70
2023/01/07 01:27:18;;;;;;;1.65;1.17;;;16.40;60.10;;;;;;5063200;28;20040;-71
2023/01/07 01:29:45;;;;;;;2.05;0.80;;;16.30;59.90;;;;;;5063475;28;20363;-73
2023/01/07 01:32:11;;;;;;;1.08;0.98;;;16.40;59.80;;;;;;5063399;28;20055;-72
2023/01/07 01:34:37;;;;;;;2.72;0.88;;;16.40;59.60;;;;;;5063328;28;20067;-71
2023/01/07 01:37:02;;;;;;;1.13;0.90;;;16.30;59.60;;;;;;5063360;28;20025;-71
2023/01/07 01:39:28;;;;;;;3.88;1.13;;;16.30;59.60;;;;;;5061916;28;20324;-71
2023/01/07 01:41:54;;;;;;;1.90;1.05;;;16.30;59.50;;;;;;5063201;28;20025;-71
2023/01/07 01:44:36;;;;;;;1.50;0.93;;;16.30;59.70;;;;;;5063164;28;20021;-71
2023/01/07 01:47:14;;;;;;;2.95;0.68;;;16.30;59.70;;;;;;5063188;28;20096;-72
2023/01/07 01:49:47;;;;;;;1.38;0.88;;;16.30;59.70;;;;;;5063137;28;20081;-71
2023/01/07 01:52:16;;;;;;;1.13;0.80;;;16.20;59.70;;;;;;5063177;28;20028;-70
2023/01/07 01:54:51;;;;;;;3.80;1.02;;;16.20;59.70;;;;;;5062901;28;20019;-71
2023/01/07 01:57:20;;;;;;;1.35;0.90;;;16.20;59.80;;;;;;5062858;28;20024;-71
2023/01/07 01:59:49;;;;;;;2.15;0.80;;;16.20;59.80;;;;;;5062900;28;20021;-72
2023/01/07 02:02:21;;;;;;;1.15;0.90;;;16.20;59.90;;;;;;5062764;28;20017;-71
2023/01/07 02:04:47;;;;;;;1.45;0.90;;;16.10;59.80;;;;;;5062719;28;20313;-71
2023/01/07 02:07:17;;;;;;;1.20;1.02;;;16.10;59.80;;;;;;5062082;28;20017;-69
2023/01/07 02:09:43;;;;;;;0.95;0.82;;;16.10;59.90;;;;;;5062663;28;20082;-71
2023/01/07 02:12:20;;;;;;;1.77;0.65;;;16.10;59.90;;;;;;5061328;28;20063;-72
2023/01/07 02:15:25;;;;;;;2.40;0.90;;;16.10;59.90;;;;;;5062461;28;20028;-70
2023/01/07 02:18:19;;;;;;;2.15;1.17;;;16.10;59.90;;;;;;5059497;28;20037;-70
2023/01/07 02:21:00;;;;;;;2.10;1.05;;;16.00;59.90;;;;;;5062502;28;20458;-71
2023/01/07 02:24:03;;;;;;;1.55;0.73;;;16.00;60.10;;;;;;5062454;28;20020;-71
2023/01/07 02:26:38;;;;;;;2.10;0.70;;;16.10;60.30;;;;;;5062138;28;20370;-70
2023/01/07 02:29:28;;;;;;;1.35;0.80;;;16.10;60.30;;;;;;5062280;28;20088;-71
2023/01/07 02:31:57;;;;;;;1.13;0.85;;;16.20;60.30;;;;;;5060972;28;20228;-71
2023/01/07 02:34:59;;;;;;;1.17;0.88;;;16.20;60.30;;;;;;5062241;28;20086;-71
2023/01/07 02:37:55;;;;;;;0.57;0.52;;;16.20;60.20;;;;;;5077562;28;20029;-71
2023/01/07 02:40:37;;;;;;;1.98;0.90;;;16.30;60.00;;;;;;5062116;28;20013;-70
2023/01/07 02:43:18;;;;;;;3.03;0.80;;;16.30;59.70;;;;;;5062022;28;20024;-70
2023/01/07 02:46:23;;;;;;;0.90;0.70;;;16.40;59.70;;;;;;5062153;28;20328;-71
2023/01/07 02:48:51;;;;;;;1.23;1.13;;;16.40;59.60;;;;;;5061739;28;20028;-71
2023/01/07 02:51:17;;;;;;;0.60;0.60;;;16.40;59.50;;;;;;5060608;28;20028;-72
2023/01/07 02:53:45;;;;;;;1.30;1.17;;;16.40;59.50;;;;;;5061845;28;20029;-71
2023/01/07 02:56:11;;;;;;;3.15;0.80;;;16.30;59.40;;;;;;5061666;28;20024;-71
2023/01/07 02:59:18;;;;;;;0.68;0.63;;;16.30;59.50;;;;;;5061709;28;20241;-71
2023/01/07 03:02:12;;;;;;;1.20;0.70;;;16.30;59.50;;;;;;5041177;28;20037;-70
2023/01/07 03:04:41;;;;;;;1.00;0.68;;;16.30;59.50;;;;;;5061683;28;20051;-72
2023/01/07 03:07:43;;;;;;;1.38;0.80;;;16.30;59.50;;;;;;5060381;28;20020;-72
2023/01/07 03:10:26;;;;;;;1.17;0.93;;;16.20;59.50;;;;;;5061661;28;20327;-71
2023/01/07 03:13:09;;;;;;;1.25;0.93;;;16.20;59.50;;;;;;5061579;28;20032;-70
2023/01/07 03:15:40;;;;;;;0.75;0.63;;;16.20;59.70;;;;;;5061553;28;20019;-72
2023/01/07 03:18:12;;;;;;;2.50;0.88;;;16.10;59.60;;;;;;5061444;28;20096;-71
2023/01/07 03:20:40;;;;;;;2.20;0.93;;;16.10;59.60;;;;;;5060948;28;20025;-71
2023/01/07 03:23:10;;;;;;;0.88;0.70;;;16.10;59.70;;;;;;5061404;28;20505;-72
2023/01/07 03:25:42;;;;;;;1.27;1.00;;;16.10;59.70;;;;;;5061403;28;20620;-71
2023/01/07 03:28:10;;;;;;;1.27;0.80;;;16.10;59.80;;;;;;5061209;28;20080;-72
2023/01/07 03:30:37;;;;;;;1.40;1.00;;;16.10;59.80;;;;;;5060938;28;20028;-72
2023/01/07 03:33:12;;;;;;;1.15;0.68;;;16.10;59.80;;;;;;5061219;28;20035;-72
2023/01/07 03:35:41;;;;;;;2.13;1.15;;;16.10;59.80;;;;;;5061477;28;20344;-71
2023/01/07 03:38:07;;;;;;;;;;;16.10;59.80;;;;;;5077192;28;20032;-71
2023/01/07 03:40:33;;;;;;;0.85;0.63;;;16.10;59.80;;;;;;5061146;28;19908;-72
2023/01/07 03:42:59;;;;;;;1.17;0.77;;;16.10;59.90;;;;;;5061192;28;20020;-71
2023/01/07 03:45:27;;;;;;;1.80;0.93;;;16.10;59.80;;;;;;5059868;28;20044;-71
2023/01/07 03:47:54;;;;;;;1.53;1.17;;;16.10;59.80;;;;;;5061153;28;20463;-71
2023/01/07 03:50:21;;;;;;;2.10;1.25;;;16.10;59.90;;;;;;5076495;28;20251;-71
2023/01/07 03:52:47;;;;;;;1.50;1.13;;;16.10;60.00;;;;;;5061077;28;20240;-71
2023/01/07 03:55:14;;;;;;;0.80;0.60;;;16.10;60.00;;;;;;5061096;28;20047;-72
2023/01/07 03:57:39;;;;;;;0.85;0.77;;;16.10;60.00;;;;;;5061186;28;20033;-70
2023/01/07 04:00:09;;;;;;;1.15;0.70;;;16.10;60.00;;;;;;5061085;28;20250;-71
2023/01/07 04:02:34;;;;;;;0.80;0.80;;;16.20;60.10;;;;;;5059781;28;20029;-71
2023/01/07 04:05:00;;;;;;;1.13;1.00;;;16.20;60.10;;;;;;5061000;28;20040;-71
2023/01/07 04:07:26;;;;;;;1.90;1.02;;;16.30;60.00;;;;;;5059903;28;20028;-71
2023/01/07 04:09:52;;;;;;;1.75;1.10;;;16.30;59.80;;;;;;5060997;28;20088;-71
2023/01/07 04:12:18;;;;;;;2.20;1.00;;;16.30;59.70;;;;;;5061002;28;20024;-70
2023/01/07 04:14:44;;;;;;;0.70;0.70;;;16.30;59.60;;;;;;5060915;28;20021;-71
2023/01/07 04:17:10;;;;;;;2.20;1.17;;;16.30;59.50;;;;;;5060940;28;20021;-72
2023/01/07 04:19:38;;;;;;;1.02;0.93;;;16.40;59.50;;;;;;5059587;28;20020;-70
2023/01/07 04:22:05;;;;;;;2.03;1.00;;;16.30;59.40;;;;;;5060848;28;20025;-72
2023/01/07 04:24:32;;;;;;;1.15;0.75;;;16.30;59.50;;;;;;5060680;28;20068;-71
2023/01/07 04:26:57;;;;;;;1.10;0.90;;;16.30;59.50;;;;;;5060695;28;20124;-72
2023/01/07 04:29:23;;;;;;;2.05;1.02;;;16.30;59.50;;;;;;5060673;28;20025;-72
2023/01/07 04:31:49;;;;;;;0.82;0.80;;;16.20;59.50;;;;;;5063875;28;20025;-72
2023/01/07 04:34:15;;;;;;;2.13;1.25;;;16.20;59.50;;;;;;5064362;28;20021;-72
2023/01/07 04:36:41;;;;;;;0.95;0.77;;;16.20;59.60;;;;;;5064495;28;20359;-72
2023/01/07 04:39:06;;;;;;;1.08;0.80;;;16.20;59.60;;;;;;5064400;28;20309;-72
2023/01/07 04:41:32;;;;;;;1.50;0.75;;;16.20;59.70;;;;;;5064240;28;20028;-70
2023/01/07 04:43:58;;;;;;;1.60;0.82;;;16.10;59.70;;;;;;5063059;28;20308;-71
2023/01/07 04:46:24;;;;;;;1.58;1.38;;;16.10;59.70;;;;;;5064146;28;20706;-72
2023/01/07 04:48:50;;;;;;;1.40;0.80;;;16.00;59.70;;;;;;5064171;28;20031;-72
2023/01/07 04:51:16;;;;;;;1.05;0.90;;;16.00;59.70;;;;;;5064133;28;20021;-71
2023/01/07 04:53:42;;;;;;;1.85;1.25;;;16.00;59.80;;;;;;5064101;28;20205;-71
2023/01/07 04:56:08;;;;;;;0.93;0.77;;;16.00;59.80;;;;;;5063996;28;20345;-71
2023/01/07 04:58:33;;;;;;;0.98;0.60;;;16.00;59.80;;;;;;5064021;28;20088;-72
2023/01/07 05:01:02;;;;;;;1.38;0.90;;;16.00;59.90;;;;;;5079439;28;20021;-71
2023/01/07 05:03:29;;;;;;;1.67;0.93;;;15.90;59.90;;;;;;5062569;28;20021;-73
2023/01/07 05:05:54;;;;;;;2.22;0.60;;;15.90;59.90;;;;;;5063857;28;20029;-72
2023/01/07 05:08:20;;;;;;;1.08;0.80;;;16.00;60.20;;;;;;5062454;28;20071;-72
2023/01/07 05:10:49;;;;;;;1.30;0.98;;;16.00;60.30;;;;;;5063777;28;20029;-72
2023/01/07 05:13:19;;;;;;;1.95;1.23;;;16.00;60.40;;;;;;5063719;28;20084;-72
2023/01/07 05:15:45;;;;;;;0.98;0.75;;;16.10;60.40;;;;;;5063710;28;20032;-72
2023/01/07 05:18:11;;;;;;;1.08;0.88;;;16.10;60.40;;;;;;5063487;28;20036;-71
2023/01/07 05:20:37;;;;;;;2.13;1.10;;;16.20;60.30;;;;;;5063505;28;20020;-71
2023/01/07 05:23:05;;;;;;;0.60;0.60;;;16.20;60.20;;;;;;5062237;28;20584;-71
2023/01/07 05:25:32;;;;;;;1.27;0.90;;;16.20;60.00;;;;;;5078966;28;20271;-73
2023/01/07 05:27:57;;;;;;;1.20;0.80;;;16.30;59.80;;;;;;5062008;28;20324;-71
2023/01/07 05:30:23;;;;;;;1.30;0.95;;;16.30;59.70;;;;;;5063536;28;20063;-71
2023/01/07 05:32:49;;;;;;;1.00;0.90;;;16.30;59.80;;;;;;5063389;28;20044;-71
2023/01/07 05:35:15;;;;;;;1.40;1.05;;;16.20;59.60;;;;;;5062169;28;20087;-71
2023/01/07 05:37:41;;;;;;;2.53;0.90;;;16.20;59.60;;;;;;5063164;28;20024;-71
2023/01/07 05:40:07;;;;;;;1.90;0.80;;;16.20;59.60;;;;;;5063129;28;20290;-72
2023/01/07 05:42:33;;;;;;;1.23;0.88;;;16.20;59.70;;;;;;5062152;28;20216;-71
2023/01/07 05:44:59;;;;;;;1.73;0.98;;;16.10;59.60;;;;;;5062005;28;20035;-71
2023/01/07 05:47:25;;;;;;;1.63;0.98;;;16.10;59.70;;;;;;5063000;28;20020;-71
2023/01/07 05:49:50;;;;;;;0.60;0.60;;;16.10;59.60;;;;;;5063044;28;20027;-71
2023/01/07 05:52:16;;;;;;;1.30;0.80;;;16.10;59.80;;;;;;5078401;28;20025;-72
2023/01/07 05:54:42;;;;;;;1.10;0.88;;;16.10;59.80;;;;;;5062884;28;20032;-72
2023/01/07 05:57:08;;;;;;;1.58;0.80;;;16.00;59.70;;;;;;5062885;28;20028;-72
2023/01/07 05:59:34;;;;;;;1.42;1.10;;;16.00;59.80;;;;;;5062884;28;20024;-71
2023/01/07 06:02:01;;;;;;;1.45;0.82;;;16.00;59.90;;;;;;5061518;28;20202;-72
2023/01/07 06:04:27;;;;;;;1.77;0.90;;;16.00;60.00;;;;;;5062602;28;20025;-73
2023/01/07 06:06:53;;;;;;;1.60;1.10;;;15.90;59.90;;;;;;5062638;28;20032;-72
2023/01/07 06:09:18;;;;;;;1.33;1.00;;;15.90;59.80;;;;;;5062542;28;20021;-71
2023/01/07 06:11:44;;;;;;;1.75;0.90;;;15.90;60.60;;;;;;5062541;28;20035;-72
2023/01/07 06:14:11;;;;;;;1.15;0.85;;;15.90;60.00;;;;;;5062609;28;20036;-72
2023/01/07 06:16:36;;;;;;;1.08;0.93;;;15.90;60.00;;;;;;5062460;28;20040;-71
2023/01/07 06:19:02;;;;;;;1.35;1.15;;;15.90;60.10;;;;;;5061598;28;20100;-73
2023/01/07 06:21:28;;;;;;;2.05;1.30;;;15.80;60.20;;;;;;5061184;28;20326;-72
2023/01/07 06:23:55;;;;;;;1.98;0.98;;;15.90;60.30;;;;;;5062369;28;20017;-71
2023/01/07 06:26:21;;;;;;;1.08;0.77;;;15.90;60.40;;;;;;5060873;28;20216;-70
2023/01/07 06:28:46;;;;;;;0.82;0.80;;;15.90;60.40;;;;;;5060852;28;20052;-71
2023/01/07 06:31:12;;;;;;;1.15;0.82;;;15.90;60.40;;;;;;5062258;28;20340;-72
2023/01/07 06:33:39;;;;;;;1.05;0.82;;;16.00;60.30;;;;;;5062205;28;20028;-71
2023/01/07 06:36:06;;;;;;;1.95;0.90;;;16.00;60.20;;;;;;5062083;28;20036;-71
2023/01/07 06:38:33;;;;;;;2.15;1.17;;;16.10;60.10;;;;;;5062126;28;20032;-72
2023/01/07 06:41:00;;;;;;;0.88;0.75;;;16.10;59.90;;;;;;5062116;28;20044;-72
2023/01/07 06:43:26;;;;;;;1.08;0.98;;;16.10;59.90;;;;;;5061924;28;20084;-71
2023/01/07 06:45:52;;;;;;;0.90;0.77;;;16.10;59.80;;;;;;5062026;28;20044;-71
2023/01/07 06:48:18;;;;;;;1.17;0.77;;;16.10;59.60;;;;;;5061865;28;20025;-72
2023/01/07 06:50:44;;;;;;;1.05;0.90;;;16.10;59.60;;;;;;5061957;28;20025;-70
2023/01/07 06:53:10;;;;;;;0.82;0.82;;;16.10;59.60;;;;;;5061624;28;20021;-72
2023/01/07 06:55:36;;;;;;;0.77;0.60;;;16.10;59.60;;;;;;5061740;28;20064;-72
2023/01/07 06:58:02;;;;;;;1.20;0.90;;;16.10;59.60;;;;;;5061843;28;20104;-71
2023/01/07 07:00:28;;;;;;;1.77;0.93;;;16.10;59.70;;;;;;5061805;28;20363;-71
2023/01/07 07:02:54;;;;;;;1.23;1.00;;;16.00;59.70;;;;;;5060309;28;20302;-72
2023/01/07 07:05:20;;;;;;;1.77;1.15;;;16.00;60.40;;;;;;5061593;28;20021;-72
2023/01/07 07:07:45;;;;;;;1.48;0.80;;;16.00;59.80;;;;;;5061561;28;20626;-71
2023/01/07 07:10:12;;;;;;;1.33;1.13;;;16.00;59.90;;;;;;5061675;28;20035;-72
2023/01/07 07:12:39;;;;;;;0.85;0.70;;;15.90;59.80;;;;;;5061670;28;20522;-71
2023/01/07 07:15:06;;;;;;;1.00;0.90;;;15.90;59.80;;;;;;5061518;28;20024;-71
2023/01/07 07:17:32;;;;;;;0.80;0.80;;;15.90;59.90;;;;;;5061492;28;20021;-71
2023/01/07 07:19:58;;;;;;;1.10;0.90;;;15.90;60.00;;;;;;5061364;28;20032;-72
2023/01/07 07:22:24;;;;;;;1.67;1.10;;;15.90;60.00;;;;;;5060091;28;20032;-72
2023/01/07 07:24:50;;;;;;;1.88;0.73;;;15.90;60.10;;;;;;5061378;28;20021;-70
2023/01/07 07:27:15;;;;;;;1.17;0.70;;;15.90;60.10;;;;;;5061281;28;20041;-70
2023/01/07 07:29:41;;;;;;;0.98;0.65;;;15.90;60.10;;;;;;5061343;28;20040;-72
2023/01/07 07:32:08;;;;;;;1.67;0.80;;;15.90;60.20;;;;;;5061258;28;20236;-72
2023/01/07 07:34:34;;;;;;;0.93;0.68;;;15.90;60.20;;;;;;5076782;28;20025;-72
2023/01/07 07:37:00;;;;;;;1.00;0.70;;;15.90;60.20;;;;;;5060191;28;20063;-72
2023/01/07 07:39:26;;;;;;;1.98;0.90;;;15.90;60.20;;;;;;5061340;28;20312;-72
2023/01/07 07:41:52;;;;;;;1.25;0.80;;;15.90;60.20;;;;;;5061359;28;20043;-71
2023/01/07 07:44:18;;;;;;;1.52;1.13;;;15.90;60.10;;;;;;5061324;28;20024;-71
2023/01/07 07:46:44;;;;;;;1.08;0.80;;;15.90;60.20;;;;;;5061213;28;20079;-72
2023/01/07 07:49:11;;;;;;;1.88;1.17;;;15.90;60.10;;;;;;5061139;28;20225;-71
2023/01/07 07:51:36;;;;;;;1.00;0.90;;;15.90;60.20;;;;;;5061166;28;20013;-72
2023/01/07 07:54:02;;;;;;;0.80;0.80;;;15.90;60.20;;;;;;5061231;28;20025;-72
2023/01/07 07:56:28;;;;;;;0.80;0.80;;;16.00;60.30;;;;;;5061036;28;20020;-70
2023/01/07 07:58:54;;;;;;;0.98;0.60;;;16.00;60.20;;;;;;5061061;28;20585;-72
2023/01/07 08:01:20;;;;;;;1.92;1.23;;;16.00;61.00;;;;;;5076499;28;20033;-72
2023/01/07 08:03:46;;;;;;;4.18;1.10;;;16.10;60.30;;;;;;5061034;28;20025;-71
2023/01/07 08:06:12;;;;;;;0.93;0.80;;;16.20;60.30;;;;;;5063258;28;20021;-71
2023/01/07 08:08:38;;;;;;;1.20;0.80;;;16.20;60.10;;;;;;5064779;28;20438;-71
2023/01/07 08:11:04;;;;;;;1.00;0.70;;;16.20;60.00;;;;;;5065029;28;20029;-72
2023/01/07 08:13:30;;;;;;;1.15;0.85;;;16.30;59.80;;;;;;5064953;28;20029;-70
2023/01/07 08:15:57;;;;;;;1.15;0.60;;;16.30;59.80;;;;;;5064759;28;20013;-72
2023/01/07 08:18:22;;;;;;;1.23;0.68;;;16.30;59.50;;;;;;5064768;28;20029;-73
2023/01/07 08:20:49;;;;;;;1.20;0.77;;;16.30;59.50;;;;;;5063423;28;20194;-71
2023/01/07 08:23:15;;;;;;;0.98;0.80;;;16.30;59.40;;;;;;5064733;28;20033;-72
2023/01/07 08:25:42;;;;;;;0.90;0.70;;;16.30;59.40;;;;;;5080197;28;20048;-73
2023/01/07 08:28:10;;;;;;;1.42;0.85;;;16.30;59.40;;;;;;5064469;28;20080;-72
2023/01/07 08:30:36;;;;;;;1.27;0.97;;;16.30;59.30;;;;;;5064689;28;20025;-72
2023/01/07 08:33:06;;;;;;;1.58;0.90;;;16.30;59.40;;;;;;5064554;28;20088;-71
2023/01/07 08:35:32;;;;;;;1.58;0.68;;;16.30;59.40;;;;;;5064571;28;20024;-71
2023/01/07 08:38:06;;;;;;;0.47;0.40;;;16.30;59.30;;;;;;5064459;28;20036;-71
2023/01/07 08:40:33;;;;;;;1.48;0.80;;;16.30;59.30;;;;;;5064513;28;20021;-71
2023/01/07 08:43:00;;;;;;;0.95;0.80;;;16.40;59.30;;;;;;5064308;28;20096;-70
2023/01/07 08:45:26;;;;;;;1.35;0.82;;;16.40;59.30;;;;;;5064343;28;20072;-71
2023/01/07 08:47:52;;;;;;;1.48;0.85;;;16.40;59.30;;;;;;5062951;28;20101;-69
2023/01/07 08:50:19;;;;;;;1.67;0.90;;;16.40;59.30;;;;;;5064254;28;20029;-70
2023/01/07 08:52:46;;;;;;;0.93;0.88;;;16.50;59.20;;;;;;5079607;28;20013;-72
2023/01/07 08:55:12;;;;;;;1.27;0.73;;;16.50;59.20;;;;;;5064205;28;20024;-71
2023/01/07 08:57:37;;;;;;;1.10;0.90;;;16.50;59.20;;;;;;5064052;28;20012;-71
2023/01/07 09:00:04;;;;;;;1.20;0.75;;;16.50;59.10;;;;;;5064101;28;20029;-73
2023/01/07 09:02:30;;;;;;;0.90;0.68;;;16.60;59.10;;;;;;5064019;28;20021;-71
2023/01/07 09:04:56;;;;;;;1.00;0.63;;;16.50;59.00;;;;;;5079547;28;20255;-71
2023/01/07 09:07:21;;;;;;;0.93;0.90;;;16.50;58.90;;;;;;5063901;28;20027;-71
2023/01/07 09:09:47;;;;;;;1.60;0.90;;;16.60;58.80;;;;;;5062543;28;20021;-71
2023/01/07 09:12:13;;;;;;;2.13;0.98;;;16.60;58.70;;;;;;5062550;28;20220;-73
2023/01/07 09:14:39;;;;;;;1.38;0.98;;;16.60;58.70;;;;;;5063636;28;20075;-71
2023/01/07 09:17:04;;;;;;;1.02;0.80;;;16.60;58.60;;;;;;5063681;28;20084;-71
2023/01/07 09:19:30;;;;;;;0.80;0.60;;;16.60;58.70;;;;;;5063710;28;20032;-71
2023/01/07 09:21:56;;;;;;;1.25;0.82;;;16.60;58.60;;;;;;5063649;28;20025;-71
2023/01/07 09:24:22;;;;;;;0.95;0.90;;;16.60;58.60;;;;;;5063627;28;20115;-71
2023/01/07 09:26:48;;;;;;;0.98;0.80;;;16.60;58.60;;;;;;5063340;28;20264;-70
2023/01/07 09:29:14;;;;;;;1.38;0.85;;;16.60;58.50;;;;;;5078793;28;20092;-71
2023/01/07 09:31:40;;;;;;;1.08;0.75;;;16.60;58.60;;;;;;5078905;28;20287;-70
2023/01/07 09:34:05;;;;;;;0.70;0.60;;;16.60;58.60;;;;;;5063377;28;20013;-71
2023/01/07 09:36:32;;;;;;;0.60;0.60;;;16.60;58.70;;;;;;5062375;28;20021;-73
2023/01/07 09:38:58;;;;;;;1.48;0.98;;;16.60;58.70;;;;;;5063250;28;20209;-72
2023/01/07 09:41:48;;;;;;;1.38;0.75;;;16.60;58.70;;;;;;5063218;28;20016;-71
2023/01/07 09:44:22;;;;;;;0.98;0.77;;;16.70;58.70;;;;;;5062103;28;20017;-71
2023/01/07 09:46:49;;;;;;;0.98;0.70;;;16.70;58.60;;;;;;5063144;28;20048;-70
2023/01/07 09:49:18;;;;;;;0.98;0.70;;;16.70;58.50;;;;;;5063057;28;20021;-71
2023/01/07 09:52:09;;;;;;;0.68;0.68;;;16.70;58.50;;;;;;5061787;28;20013;-71
2023/01/07 09:54:38;;;;;;;0.52;0.52;;;16.70;58.50;;;;;;5063057;28;20329;-71
2023/01/07 09:57:04;;;;;;;;;;;16.70;58.40;;;;;;5063344;28;20024;-72
2023/01/07 09:59:30;;;;;;;1.08;0.98;;;16.70;58.40;;;;;;5062931;28;20243;-71
2023/01/07 10:01:56;;;;;;;0.77;0.70;;;16.80;58.30;;;;;;5078298;28;20213;-71
2023/01/07 10:04:38;;;;;;;0.82;0.80;;;16.80;58.20;;;;;;5062938;28;20088;-72
2023/01/07 10:07:23;;;;;;;1.60;0.88;;;16.80;58.20;;;;;;5062866;28;20346;-71
2023/01/07 10:10:03;;;;;;;1.38;1.27;;;16.80;58.20;;;;;;5062706;28;20021;-71
2023/01/07 10:12:50;;;;;;;1.92;1.00;;;16.80;58.10;;;;;;5062615;28;20034;-70
2023/01/07 10:15:41;;;;;;;0.98;0.70;;;16.80;58.20;;;;;;5062612;28;20135;-70
2023/01/07 10:18:38;;;;;;;0.95;0.60;;;16.80;58.10;;;;;;5055531;28;20036;-71
2023/01/07 10:21:25;;;;;;;0.68;0.63;;;16.80;58.10;;;;;;5062458;28;20028;-71
2023/01/07 10:24:02;;;;;;;0.70;0.70;;;16.80;58.20;;;;;;5062507;28;20024;-72
2023/01/07 10:26:40;;;;;;;0.63;0.60;;;16.80;58.20;;;;;;5060899;28;20070;-71
2023/01/07 10:29:09;;;;;;;1.38;0.70;;;16.80;58.20;;;;;;5056096;28;20033;-71
2023/01/07 10:31:35;;;;;;;27.77;3.00;;;16.80;58.30;;;;;;5053537;28;20025;-72
2023/01/07 10:34:02;;;;;;;9.70;3.78;;;16.80;58.40;;;;;;5077700;28;20012;-70
2023/01/07 10:36:33;;;;;;;40.13;9.77;;;16.70;57.50;;;;;;5062210;28;20045;-71
2023/01/07 10:39:29;;;;;;;36.90;9.07;;;16.60;56.30;;;;;;5062118;28;20048;-70
2023/01/07 10:42:21;;;;;;;18.27;8.68;;;16.40;56.10;;;;;;5061999;28;20025;-71
2023/01/07 10:45:18;;;;;;;43.92;9.60;;;16.10;56.60;;;;;;5061472;28;20017;-72
2023/01/07 10:48:20;;;;;;;73.85;11.77;;;15.90;57.40;;;;;;5061949;28;20029;-73
2023/01/07 10:51:00;;;;;;;26.15;8.98;;;16.20;57.70;;;;;;5063625;28;20301;-71
2023/01/07 10:53:55;;;;;;;25.92;7.32;;;16.40;57.80;;;;;;5056636;28;20225;-72
2023/01/07 10:56:50;;;;;;;18.48;6.78;;;16.40;57.70;;;;;;5053787;28;20321;-72
2023/01/07 10:59:21;;;;;;;17.38;4.70;;;16.50;57.70;;;;;;5047891;28;20141;-72
2023/01/07 11:01:53;;;;;;;17.50;4.50;;;16.60;57.70;;;;;;5061710;28;20019;-73
2023/01/07 11:04:19;;;;;;;17.10;4.88;;;16.60;57.70;;;;;;5060491;28;20033;-73
2023/01/07 11:07:20;;;;;;;13.13;4.40;;;16.60;57.80;;;;;;5061600;28;20194;-71
2023/01/07 11:09:47;;;;;;;15.45;5.32;;;16.70;57.80;;;;;;5061756;28;20031;-73
2023/01/07 11:12:33;;;;;;;8.15;4.35;;;16.70;57.90;;;;;;5061802;28;20063;-72
2023/01/07 11:15:03;;;;;;;18.58;4.45;;;16.70;57.90;;;;;;5052624;28;20363;-73
2023/01/07 11:17:43;;;;;;;10.95;4.18;;;16.70;57.90;;;;;;5056498;28;20244;-72
2023/01/07 11:20:09;;;;;;;12.18;3.90;;;16.70;57.90;;;;;;5060420;28;20193;-72
2023/01/07 11:22:38;;;;;;;11.32;3.60;;;16.70;58.00;;;;;;5061619;28;20024;-72
2023/01/07 11:25:28;;;;;;;21.90;5.20;;;16.70;58.00;;;;;;5060114;28;20029;-69
2023/01/07 11:28:02;;;;;;;12.93;3.28;;;16.70;57.80;;;;;;5055689;28;20041;-68
2023/01/07 11:30:32;;;;;;;11.10;3.60;;;16.70;58.10;;;;;;5061255;28;20080;-70
2023/01/07 11:33:01;;;;;;;10.88;3.85;;;16.60;58.20;;;;;;5061540;28;20047;-63
2023/01/07 11:35:28;;;;;;;12.95;3.58;;;16.60;58.40;;;;;;5060038;28;20028;-63
2023/01/07 11:37:54;;;;;;;11.38;3.20;;;16.50;58.70;;;;;;5061281;28;20021;-63
2023/01/07 11:40:28;;;;;;;18.88;4.00;;;16.50;58.90;;;;;;5062036;28;20033;-62
2023/01/07 11:43:03;;;;;;;8.32;3.42;;;16.50;59.00;;;;;;5058658;28;20067;-63
2023/01/07 11:45:59;;;;;;;16.90;4.03;;;16.50;59.10;;;;;;5064607;28;20021;-65
2023/01/07 11:48:30;;;;;;;6.20;3.10;;;16.40;59.10;;;;;;5050118;28;20037;-63
2023/01/07 11:51:04;;;;;;;10.32;4.18;;;16.50;59.20;;;;;;5054054;28;20055;-63
2023/01/07 11:53:50;;;;;;;14.23;3.65;;;16.40;58.90;;;;;;5054457;28;20029;-64
2023/01/07 11:56:18;;;;;;;7.97;3.00;;;16.50;59.00;;;;;;5045099;28;20017;-63
2023/01/07 11:58:47;;;;;;;6.78;3.05;;;16.50;59.10;;;;;;5048333;28;20024;-63
2023/01/07 12:01:15;;;;;;;8.43;3.33;;;16.50;58.80;;;;;;5065118;28;20048;-63
2023/01/07 12:03:53;;;;;;;13.80;3.25;;;16.50;59.00;;;;;;5064205;28;20024;-63
2023/01/07 12:06:23;;;;;;;9.85;3.35;;;16.50;59.10;;;;;;5063434;28;20044;-63
2023/01/07 12:09:17;;;;;;;7.13;3.22;;;16.60;59.20;;;;;;5063247;28;20025;-63
2023/01/07 12:11:44;;;;;;;9.27;3.38;;;16.50;59.20;;;;;;5063525;28;20021;-62
2023/01/07 12:14:22;;;;;;;6.95;3.00;;;16.50;59.30;;;;;;5063998;28;20063;-63
2023/01/07 12:16:50;;;;;;;5.78;2.40;;;16.60;59.20;;;;;;5063821;28;20044;-62
2023/01/07 12:19:49;;;;;;;19.50;4.30;;;16.50;59.10;;;;;;5061426;28;20127;-63
2023/01/07 12:22:46;;;;;;;26.70;4.97;;;16.60;59.20;;;;;;5064728;28;20139;-67
2023/01/07 12:25:19;;;;;;;23.55;4.93;;;16.60;59.10;;;;;;5064692;28;20062;-64
2023/01/07 12:28:12;;;;;;;28.58;5.35;;;16.70;59.50;;;;;;5063424;28;20045;-63
2023/01/07 12:30:49;;;;;;;117.93;15.43;;;16.80;59.40;;;;;;5044072;28;20072;-64
2023/01/07 12:33:33;;;;;;;28.70;6.13;;;16.70;56.60;;;;;;5043272;28;20100;-68
2023/01/07 12:36:09;;;;;;;37.05;6.35;;;16.60;59.50;;;;;;5044421;28;20021;-69
2023/01/07 12:38:45;;;;;;;28.67;6.55;;;16.70;57.90;;;;;;5048366;28;20021;-65
2023/01/07 12:41:18;;;;;;;26.33;4.63;;;16.70;58.90;;;;;;5064364;28;20239;-63
2023/01/07 12:44:01;;;;;;;41.58;7.93;;;16.80;59.40;;;;;;5064388;28;20378;-64
2023/01/07 12:46:38;;;;;;;23.48;5.32;;;16.80;59.80;;;;;;5064305;28;20029;-63
2023/01/07 12:49:10;;;;;;;30.23;5.43;;;16.90;59.20;;;;;;5064074;28;20025;-64
2023/01/07 12:51:48;;;;;;;26.50;5.28;;;17.00;59.20;;;;;;5063725;28;20028;-63
2023/01/07 12:54:21;;;;;;;34.90;5.60;;;17.10;59.30;;;;;;5064029;28;20036;-63
2023/01/07 12:56:58;;;;;;;20.45;5.18;;;17.10;59.10;;;;;;5064091;28;20305;-64
2023/01/07 12:59:27;;;;;;;18.25;4.65;;;17.20;59.00;;;;;;5064079;28;20052;-64
2023/01/07 13:02:09;;;;;;;23.38;4.43;;;17.20;58.90;;;;;;5062118;28;20029;-63
2023/01/07 13:04:38;;;;;;;28.25;6.28;;;17.30;58.90;;;;;;5063945;28;20067;-64